Time;durP1;ratioP1;P1;durP2;ratioP2;P2;SDS_P1;SDS_P2;PMS_P1;PMS_P2;Temp;Humidity;BMP_temperature;BMP_pressure;BME280_temperature;BME280_humidity;BME280_pressure;Samples;Min_cycle;Max_cycle;Signal;HPM_P1;HPM_P2
2021/09/29 00:01:08;;;;;;;4.40;4.00;;;17.60;99.90;;;;;;5998439;23;20264;-76
2021/09/29 00:03:36;;;;;;;4.30;4.00;;;17.60;99.90;;;;;;6000860;23;20219;-75
2021/09/29 00:06:04;;;;;;;4.78;4.13;;;17.50;99.90;;;;;;6000144;23;20246;-76
2021/09/29 00:08:31;;;;;;;4.18;3.88;;;17.50;99.90;;;;;;6002555;23;20268;-75
2021/09/29 00:10:58;;;;;;;4.30;4.00;;;17.40;99.90;;;;;;6000417;23;20763;-75
2021/09/29 00:13:26;;;;;;;5.00;4.60;;;17.40;99.90;;;;;;6000830;23;20215;-75
2021/09/29 00:15:54;;;;;;;4.82;4.43;;;17.40;99.90;;;;;;5999803;23;20244;-75
2021/09/29 00:18:22;;;;;;;4.50;4.18;;;17.30;99.90;;;;;;6002716;23;20319;-75
2021/09/29 00:20:50;;;;;;;5.70;4.35;;;17.30;99.90;;;;;;6002317;23;20203;-76
2021/09/29 00:23:17;;;;;;;4.78;4.38;;;17.30;99.90;;;;;;6002157;23;20271;-75
2021/09/29 00:25:44;;;;;;;5.30;4.80;;;17.20;99.90;;;;;;6000995;23;20211;-76
2021/09/29 00:28:11;;;;;;;4.57;4.18;;;17.20;99.90;;;;;;6001874;23;20203;-75
2021/09/29 00:30:50;;;;;;;4.70;4.25;;;17.30;99.90;;;;;;6002782;23;20211;-75
2021/09/29 00:33:17;;;;;;;5.10;4.70;;;17.30;99.90;;;;;;6001806;23;20532;-76
2021/09/29 00:35:45;;;;;;;5.15;4.65;;;17.30;99.90;;;;;;6001900;23;20323;-75
2021/09/29 00:38:12;;;;;;;4.38;4.00;;;17.30;99.90;;;;;;6001605;23;20666;-75
2021/09/29 00:40:39;;;;;;;4.90;4.50;;;17.40;99.90;;;;;;6001224;23;20214;-75
2021/09/29 00:43:06;;;;;;;4.85;4.45;;;17.40;99.90;;;;;;6002516;23;20263;-75
2021/09/29 00:45:33;;;;;;;4.82;4.32;;;17.30;99.90;;;;;;6001373;23;20207;-74
2021/09/29 00:48:02;;;;;;;5.20;4.70;;;17.30;99.90;;;;;;6001087;23;20267;-75
2021/09/29 00:50:29;;;;;;;4.60;4.20;;;17.30;99.90;;;;;;5987555;23;20203;-75
2021/09/29 00:52:58;;;;;;;4.95;4.45;;;17.30;99.90;;;;;;6000723;23;20219;-75
2021/09/29 00:55:25;;;;;;;5.50;5.00;;;17.30;99.90;;;;;;6002166;23;20271;-75
2021/09/29 00:57:52;;;;;;;4.68;4.28;;;17.30;99.90;;;;;;6001058;23;20215;-75
2021/09/29 01:00:20;;;;;;;4.82;4.32;;;17.30;99.90;;;;;;6000942;23;20204;-76
2021/09/29 01:02:47;;;;;;;5.28;4.35;;;17.30;99.90;;;;;;6001214;23;20219;-74
2021/09/29 01:05:16;;;;;;;4.60;4.20;;;17.30;99.90;;;;;;6001417;23;20206;-75
2021/09/29 01:07:52;;;;;;;5.60;5.10;;;17.20;99.90;;;;;;6001489;23;20207;-75
2021/09/29 01:10:27;;;;;;;4.90;4.50;;;17.20;99.90;;;;;;6001687;23;20600;-75
2021/09/29 01:13:00;;;;;;;5.10;4.60;;;17.20;99.90;;;;;;5999655;23;20275;-74
2021/09/29 01:15:30;;;;;;;4.63;4.22;;;17.10;99.90;;;;;;6000012;23;20267;-75
2021/09/29 01:18:01;;;;;;;4.70;4.30;;;17.10;99.90;;;;;;6042341;23;20662;-74
2021/09/29 01:20:35;;;;;;;4.53;4.22;;;17.10;99.90;;;;;;6084250;23;20614;-74
2021/09/29 01:23:10;;;;;;;4.82;4.43;;;17.10;99.90;;;;;;6085283;23;20200;-73
2021/09/29 01:25:47;;;;;;;4.78;4.28;;;17.10;99.90;;;;;;6087152;23;20256;-73
2021/09/29 01:28:20;;;;;;;4.50;4.10;;;17.10;99.90;;;;;;6088078;23;20677;-74
2021/09/29 01:30:47;;;;;;;4.90;4.50;;;17.10;99.90;;;;;;6088633;23;20214;-74
2021/09/29 01:33:16;;;;;;;5.32;4.88;;;17.10;99.90;;;;;;6086368;23;20213;-73
2021/09/29 01:35:44;;;;;;;4.28;3.97;;;17.10;99.90;;;;;;6088246;23;20725;-74
2021/09/29 01:38:11;;;;;;;4.50;4.20;;;17.10;99.90;;;;;;6087454;23;20757;-73
2021/09/29 01:40:38;;;;;;;4.40;4.00;;;17.10;99.90;;;;;;6102143;23;20213;-74
2021/09/29 01:43:05;;;;;;;5.05;4.65;;;17.10;99.90;;;;;;6087735;23;20464;-75
2021/09/29 01:45:35;;;;;;;4.70;4.30;;;17.10;99.90;;;;;;6086939;23;20208;-76
2021/09/29 01:48:02;;;;;;;5.18;4.68;;;17.20;99.90;;;;;;6087577;23;20212;-76
2021/09/29 01:50:31;;;;;;;5.00;4.60;;;17.20;99.90;;;;;;6088158;23;20202;-76
2021/09/29 01:53:00;;;;;;;4.72;4.35;;;17.20;99.90;;;;;;6073002;23;20516;-76
2021/09/29 01:55:29;;;;;;;4.63;4.22;;;17.20;99.90;;;;;;6088336;23;20722;-76
2021/09/29 01:57:56;;;;;;;4.80;4.30;;;17.20;99.90;;;;;;6086035;23;20268;-75
2021/09/29 02:00:23;;;;;;;4.70;4.30;;;17.10;99.90;;;;;;6086739;23;21782;-76
2021/09/29 02:02:55;;;;;;;4.72;4.32;;;17.10;99.90;;;;;;6088340;23;20236;-75
2021/09/29 02:05:29;;;;;;;4.43;4.03;;;17.10;99.90;;;;;;6087421;23;20257;-73
2021/09/29 02:07:57;;;;;;;4.18;3.88;;;17.00;99.90;;;;;;6086115;23;20296;-75
2021/09/29 02:10:24;;;;;;;4.85;4.40;;;17.00;99.90;;;;;;6087998;23;20553;-74
2021/09/29 02:12:51;;;;;;;4.20;3.90;;;17.00;99.90;;;;;;6087199;23;20207;-75
2021/09/29 02:15:19;;;;;;;4.43;4.13;;;17.00;99.90;;;;;;6088080;23;20205;-75
2021/09/29 02:17:46;;;;;;;4.05;3.65;;;17.00;99.90;;;;;;6085706;23;20210;-75
2021/09/29 02:20:15;;;;;;;4.40;4.10;;;17.00;99.90;;;;;;6087234;23;20270;-74
2021/09/29 02:22:42;;;;;;;4.43;4.05;;;17.00;99.90;;;;;;6087436;23;20209;-75
2021/09/29 02:25:10;;;;;;;4.65;4.25;;;17.00;99.90;;;;;;6087591;23;20205;-75
2021/09/29 02:27:38;;;;;;;4.10;3.80;;;17.00;99.90;;;;;;6087267;23;20213;-75
2021/09/29 02:30:07;;;;;;;4.65;4.20;;;17.00;99.90;;;;;;6086684;23;20620;-75
2021/09/29 02:32:34;;;;;;;5.15;4.68;;;17.00;99.90;;;;;;6095864;23;20213;-73
2021/09/29 02:35:01;;;;;;;4.60;4.20;;;17.00;99.90;;;;;;6085830;23;20206;-74
2021/09/29 02:37:30;;;;;;;4.55;4.25;;;17.10;99.90;;;;;;6085213;23;20201;-75
2021/09/29 02:39:57;;;;;;;4.13;3.83;;;17.10;99.90;;;;;;6086692;23;20213;-74
2021/09/29 02:42:24;;;;;;;5.20;4.68;;;17.10;99.90;;;;;;6086344;23;20224;-74
2021/09/29 02:44:51;;;;;;;4.40;4.10;;;17.10;99.90;;;;;;6084365;23;20280;-75
2021/09/29 02:47:18;;;;;;;4.32;4.03;;;17.10;99.90;;;;;;6085093;23;20206;-74
2021/09/29 02:49:45;;;;;;;3.97;3.67;;;17.10;99.90;;;;;;6087108;23;20205;-75
2021/09/29 02:52:12;;;;;;;4.50;4.10;;;17.10;99.90;;;;;;6086658;23;20209;-75
2021/09/29 02:54:40;;;;;;;4.05;3.75;;;17.10;99.90;;;;;;6087201;23;20210;-74
2021/09/29 02:57:07;;;;;;;4.70;4.30;;;17.10;99.90;;;;;;6085879;23;20272;-74
2021/09/29 02:59:34;;;;;;;4.50;4.10;;;17.10;99.90;;;;;;6086521;23;20213;-75
2021/09/29 03:02:02;;;;;;;4.13;3.83;;;17.10;99.90;;;;;;6086643;23;20294;-74
2021/09/29 03:04:29;;;;;;;4.90;4.50;;;17.10;99.90;;;;;;6073976;23;20205;-75
2021/09/29 03:06:56;;;;;;;5.05;4.53;;;17.10;99.90;;;;;;6085591;23;20213;-73
2021/09/29 03:09:23;;;;;;;4.30;4.00;;;17.10;99.90;;;;;;6087091;23;20209;-74
2021/09/29 03:11:51;;;;;;;4.10;3.80;;;17.10;99.90;;;;;;6087173;23;20216;-74
2021/09/29 03:14:18;;;;;;;4.53;4.13;;;17.10;99.90;;;;;;6088007;23;20745;-75
2021/09/29 03:16:45;;;;;;;4.60;4.20;;;17.10;99.90;;;;;;6088307;23;20274;-74
2021/09/29 03:19:13;;;;;;;4.45;4.13;;;17.10;99.90;;;;;;6086091;23;20237;-75
2021/09/29 03:21:40;;;;;;;3.88;3.58;;;17.10;99.90;;;;;;6086377;23;20209;-75
2021/09/29 03:24:07;;;;;;;4.18;3.88;;;17.10;99.90;;;;;;6099066;23;20256;-74
2021/09/29 03:26:34;;;;;;;4.25;3.95;;;17.10;99.90;;;;;;6087847;23;20272;-75
2021/09/29 03:29:02;;;;;;;4.07;3.78;;;17.10;99.90;;;;;;6089777;23;20260;-74
2021/09/29 03:31:29;;;;;;;4.65;4.28;;;17.10;99.90;;;;;;6090552;23;20201;-76
2021/09/29 03:33:56;;;;;;;4.57;4.18;;;17.10;99.90;;;;;;6088357;23;20201;-75
2021/09/29 03:36:24;;;;;;;4.40;4.10;;;17.10;99.90;;;;;;6088283;23;20216;-74
2021/09/29 03:38:51;;;;;;;4.43;4.10;;;17.10;99.90;;;;;;6087983;23;20210;-75
2021/09/29 03:41:18;;;;;;;4.90;4.50;;;17.10;99.90;;;;;;6087757;23;20549;-76
2021/09/29 03:43:45;;;;;;;4.53;4.22;;;17.00;99.90;;;;;;6088855;23;20213;-75
2021/09/29 03:46:13;;;;;;;4.53;4.15;;;17.10;99.90;;;;;;6089893;23;20212;-75
2021/09/29 03:48:41;;;;;;;4.32;3.92;;;17.00;99.90;;;;;;6088678;23;20217;-74
2021/09/29 03:51:08;;;;;;;4.53;4.13;;;17.00;99.90;;;;;;6089360;23;20201;-75
2021/09/29 03:53:35;;;;;;;4.15;3.85;;;17.00;99.90;;;;;;6088817;23;20562;-76
2021/09/29 03:56:02;;;;;;;4.90;4.50;;;17.00;99.90;;;;;;6090674;23;20206;-76
2021/09/29 03:58:29;;;;;;;4.68;4.28;;;17.00;99.90;;;;;;6090029;23;20213;-75
2021/09/29 04:00:56;;;;;;;4.90;4.50;;;17.00;99.90;;;;;;6088357;23;20650;-75
2021/09/29 04:03:25;;;;;;;4.55;4.22;;;17.00;99.90;;;;;;6091232;23;20209;-76
2021/09/29 04:05:52;;;;;;;4.72;4.28;;;17.00;99.90;;;;;;6087501;23;20224;-75
2021/09/29 04:08:19;;;;;;;4.65;4.25;;;17.00;99.90;;;;;;6088907;23;20285;-75
2021/09/29 04:10:46;;;;;;;4.72;4.43;;;16.90;99.90;;;;;;6089250;23;20261;-75
2021/09/29 04:13:13;;;;;;;4.72;4.32;;;16.90;99.90;;;;;;6088533;23;20268;-75
2021/09/29 04:15:40;;;;;;;4.93;4.53;;;16.90;99.90;;;;;;6094786;23;20244;-76
2021/09/29 04:18:07;;;;;;;4.40;4.10;;;16.90;99.90;;;;;;6089504;23;20232;-76
2021/09/29 04:20:36;;;;;;;5.10;4.60;;;16.90;99.90;;;;;;6087893;23;20311;-76
2021/09/29 04:23:03;;;;;;;5.10;4.70;;;16.90;99.90;;;;;;6088859;23;20213;-76
2021/09/29 04:25:30;;;;;;;4.38;4.07;;;16.90;99.90;;;;;;6088596;23;20202;-76
2021/09/29 04:27:58;;;;;;;5.20;4.80;;;16.90;99.90;;;;;;6087331;23;20481;-74
2021/09/29 04:30:25;;;;;;;4.88;4.47;;;16.90;99.90;;;;;;6084562;23;20210;-75
2021/09/29 04:32:52;;;;;;;4.88;4.43;;;16.80;99.90;;;;;;6086941;23;20217;-75
2021/09/29 04:35:19;;;;;;;4.68;4.28;;;16.80;99.90;;;;;;6086941;23;20603;-75
2021/09/29 04:37:47;;;;;;;4.53;4.13;;;16.80;99.90;;;;;;6086977;23;20221;-74
2021/09/29 04:40:14;;;;;;;4.75;4.35;;;16.80;99.90;;;;;;6087299;23;20197;-75
2021/09/29 04:42:41;;;;;;;5.10;4.60;;;16.80;99.90;;;;;;6086641;23;20660;-75
2021/09/29 04:45:09;;;;;;;4.55;4.13;;;16.80;99.90;;;;;;6085601;23;20769;-74
2021/09/29 04:47:36;;;;;;;5.25;4.82;;;16.80;99.90;;;;;;6084780;23;20825;-74
2021/09/29 04:50:04;;;;;;;4.97;4.57;;;16.80;99.90;;;;;;6085148;23;20584;-75
2021/09/29 04:52:31;;;;;;;5.53;5.03;;;16.70;99.90;;;;;;6083660;23;20774;-74
2021/09/29 04:54:59;;;;;;;6.82;5.05;;;16.70;99.90;;;;;;6084465;23;20216;-74
2021/09/29 04:57:28;;;;;;;5.78;5.28;;;16.70;99.90;;;;;;6084420;23;20605;-74
2021/09/29 04:59:55;;;;;;;5.45;5.05;;;16.60;99.90;;;;;;6084177;23;20212;-75
2021/09/29 05:02:24;;;;;;;6.38;5.88;;;16.60;99.90;;;;;;6084863;23;20253;-74
2021/09/29 05:04:51;;;;;;;5.72;5.22;;;16.50;99.90;;;;;;6083537;23;20261;-73
2021/09/29 05:07:20;;;;;;;5.97;5.50;;;16.40;99.90;;;;;;6085205;23;20201;-76
2021/09/29 05:09:50;;;;;;;6.00;5.50;;;16.40;99.90;;;;;;6086263;23;20228;-74
2021/09/29 05:12:27;;;;;;;6.38;5.88;;;16.30;99.90;;;;;;6086463;23;20205;-75
2021/09/29 05:14:54;;;;;;;7.00;6.32;;;16.20;99.90;;;;;;6085467;23;20236;-75
2021/09/29 05:17:21;;;;;;;7.68;6.97;;;16.20;99.90;;;;;;6084125;23;20686;-74
2021/09/29 05:19:48;;;;;;;7.65;7.05;;;16.10;99.90;;;;;;6085621;23;20216;-77
2021/09/29 05:22:15;;;;;;;7.13;6.43;;;16.10;99.90;;;;;;6084284;23;20588;-76
2021/09/29 05:24:43;;;;;;;6.40;5.90;;;16.10;99.90;;;;;;6085977;23;20224;-74
2021/09/29 05:27:10;;;;;;;6.55;5.95;;;16.10;99.90;;;;;;6086214;23;20217;-77
2021/09/29 05:29:41;;;;;;;6.05;5.45;;;16.20;99.90;;;;;;6087803;23;20202;-75
2021/09/29 05:32:09;;;;;;;5.90;5.40;;;16.20;99.90;;;;;;6088222;23;20678;-74
2021/09/29 05:34:36;;;;;;;6.45;5.85;;;16.20;99.90;;;;;;6087084;23;20288;-75
2021/09/29 05:37:03;;;;;;;5.32;4.93;;;16.20;99.90;;;;;;6086380;23;20682;-75
2021/09/29 05:39:30;;;;;;;6.00;5.50;;;16.20;99.90;;;;;;6082773;23;20558;-77
2021/09/29 05:41:58;;;;;;;5.53;5.03;;;16.30;99.90;;;;;;6085302;23;20536;-75
2021/09/29 05:44:25;;;;;;;6.03;5.50;;;16.30;99.90;;;;;;6085391;23;20237;-77
2021/09/29 05:46:53;;;;;;;6.97;6.38;;;16.30;99.90;;;;;;6084322;23;20624;-75
2021/09/29 05:49:20;;;;;;;7.00;6.40;;;16.20;99.90;;;;;;6086259;23;20417;-75
2021/09/29 05:51:47;;;;;;;6.45;5.85;;;16.20;99.90;;;;;;6086203;23;20205;-75
2021/09/29 05:54:14;;;;;;;6.47;5.97;;;16.10;99.90;;;;;;6084705;23;20209;-75
2021/09/29 05:56:42;;;;;;;6.95;6.35;;;16.00;99.90;;;;;;6084329;23;20271;-76
2021/09/29 05:59:09;;;;;;;6.95;6.35;;;15.90;99.90;;;;;;6088374;23;20261;-78
2021/09/29 06:01:36;;;;;;;7.13;6.43;;;15.80;99.90;;;;;;6086655;23;20246;-77
2021/09/29 06:04:05;;;;;;;6.95;6.38;;;15.80;99.90;;;;;;6086920;23;20209;-77
2021/09/29 06:06:32;;;;;;;7.18;6.57;;;15.80;99.90;;;;;;6013638;23;20201;-77
2021/09/29 06:08:59;;;;;;;7.55;6.95;;;15.70;99.90;;;;;;6073557;23;20201;-77
2021/09/29 06:11:26;;;;;;;6.45;5.88;;;15.70;99.90;;;;;;6087719;23;20252;-78
2021/09/29 06:13:53;;;;;;;5.57;5.18;;;15.70;99.90;;;;;;6086408;23;20209;-78
2021/09/29 06:16:20;;;;;;;5.97;5.47;;;15.80;99.90;;;;;;6085720;23;20214;-77
2021/09/29 06:18:51;;;;;;;6.70;6.00;;;15.80;99.90;;;;;;6084757;23;20201;-77
2021/09/29 06:21:20;;;;;;;6.65;6.05;;;15.90;99.90;;;;;;6084644;23;20198;-77
2021/09/29 06:23:47;;;;;;;7.10;5.93;;;15.90;99.90;;;;;;6083825;23;20237;-76
2021/09/29 06:26:14;;;;;;;7.43;6.72;;;15.90;99.90;;;;;;6084428;23;20209;-76
2021/09/29 06:28:41;;;;;;;7.32;6.72;;;16.00;99.90;;;;;;6083424;23;20447;-77
2021/09/29 06:31:09;;;;;;;6.28;5.78;;;16.00;99.90;;;;;;6082850;23;20209;-76
2021/09/29 06:33:36;;;;;;;6.22;5.72;;;16.00;99.90;;;;;;6083485;23;20268;-78
2021/09/29 06:36:04;;;;;;;7.30;6.60;;;16.00;99.90;;;;;;6051652;23;20280;-76
2021/09/29 06:38:33;;;;;;;6.65;6.05;;;16.00;99.90;;;;;;6100040;23;20543;-77
2021/09/29 06:41:00;;;;;;;6.88;6.28;;;16.00;99.90;;;;;;6085144;23;20205;-76
2021/09/29 06:43:27;;;;;;;6.63;6.13;;;16.10;99.90;;;;;;6084847;23;20214;-76
2021/09/29 06:45:54;;;;;;;6.20;5.60;;;16.20;99.90;;;;;;6086438;23;20658;-78
2021/09/29 06:48:21;;;;;;;6.90;6.30;;;16.30;99.90;;;;;;6083072;23;20214;-77
2021/09/29 06:50:48;;;;;;;6.18;5.68;;;16.40;99.90;;;;;;6088461;23;20205;-75
2021/09/29 06:53:17;;;;;;;6.05;5.45;;;16.50;99.90;;;;;;6088913;23;20213;-78
2021/09/29 06:55:45;;;;;;;6.82;6.22;;;16.60;99.90;;;;;;6087822;23;20225;-76
2021/09/29 06:58:12;;;;;;;6.38;5.78;;;16.60;99.90;;;;;;6086769;23;20272;-76
2021/09/29 07:00:40;;;;;;;6.25;5.75;;;16.60;99.90;;;;;;6087294;23;20205;-76
2021/09/29 07:03:08;;;;;;;6.88;6.28;;;16.60;99.90;;;;;;6084940;23;20201;-76
2021/09/29 07:05:35;;;;;;;6.80;5.97;;;16.70;99.90;;;;;;6080717;23;20627;-76
2021/09/29 07:08:02;;;;;;;9.02;6.82;;;16.70;99.90;;;;;;6085271;23;20268;-76
2021/09/29 07:10:30;;;;;;;7.05;6.35;;;16.80;99.90;;;;;;6072152;23;20704;-76
2021/09/29 07:12:59;;;;;;;7.15;6.55;;;17.00;99.90;;;;;;6085539;23;20201;-76
2021/09/29 07:15:27;;;;;;;7.00;6.40;;;17.50;99.90;;;;;;6084974;23;20282;-75
2021/09/29 07:17:57;;;;;;;7.47;6.78;;;17.80;99.90;;;;;;6041751;23;20210;-74
2021/09/29 07:20:25;;;;;;;6.45;5.95;;;18.10;99.90;;;;;;6078921;23;20650;-77
2021/09/29 07:22:52;;;;;;;7.20;6.60;;;18.40;99.90;;;;;;6084685;23;20209;-77
2021/09/29 07:25:19;;;;;;;7.07;6.47;;;18.60;99.90;;;;;;6082242;23;20201;-77
2021/09/29 07:27:46;;;;;;;6.65;6.13;;;18.60;99.90;;;;;;6084148;23;20209;-77
2021/09/29 07:30:15;;;;;;;6.82;6.13;;;19.10;99.90;;;;;;6086244;23;20205;-77
2021/09/29 07:32:45;;;;;;;6.60;6.00;;;19.80;99.90;;;;;;6087816;23;20205;-77
2021/09/29 07:35:13;;;;;;;7.07;6.35;;;20.60;99.90;;;;;;6084268;23;20213;-77
2021/09/29 07:37:40;;;;;;;6.95;6.35;;;21.30;99.90;;;;;;6086201;23;20260;-78
2021/09/29 07:40:09;;;;;;;7.05;6.35;;;21.90;99.90;;;;;;6083352;23;20228;-78
2021/09/29 07:42:36;;;;;;;6.45;5.85;;;22.20;99.90;;;;;;6086442;23;20209;-77
2021/09/29 07:45:05;;;;;;;6.43;5.82;;;22.20;99.90;;;;;;6086709;23;20769;-75
2021/09/29 07:47:34;;;;;;;6.78;6.18;;;22.10;99.90;;;;;;6086938;23;20201;-77
2021/09/29 07:50:01;;;;;;;5.80;5.20;;;22.10;99.90;;;;;;6085808;23;20201;-78
2021/09/29 07:52:28;;;;;;;5.55;5.05;;;22.20;99.90;;;;;;6086810;23;20208;-78
2021/09/29 07:54:55;;;;;;;5.70;5.30;;;22.40;99.90;;;;;;6085444;23;20685;-77
2021/09/29 07:57:22;;;;;;;5.88;5.28;;;22.60;99.90;;;;;;6086117;23;20205;-75
2021/09/29 07:59:49;;;;;;;6.47;5.88;;;23.00;99.90;;;;;;6083482;23;20316;-78
2021/09/29 08:02:16;;;;;;;6.38;5.78;;;23.10;99.90;;;;;;6084332;23;20210;-77
2021/09/29 08:04:45;;;;;;;6.05;5.45;;;22.80;99.90;;;;;;6084063;23;20206;-78
2021/09/29 08:07:13;;;;;;;6.55;6.05;;;22.90;99.90;;;;;;6082509;23;20206;-76
2021/09/29 08:09:41;;;;;;;5.63;5.13;;;23.00;99.90;;;;;;6085424;23;20753;-78
2021/09/29 08:12:08;;;;;;;6.22;5.72;;;22.90;99.90;;;;;;6084473;23;20503;-75
2021/09/29 08:14:39;;;;;;;5.82;5.28;;;22.90;99.90;;;;;;6085678;23;20224;-78
2021/09/29 08:17:07;;;;;;;7.15;5.82;;;23.00;99.90;;;;;;6086660;23;20713;-77
2021/09/29 08:19:34;;;;;;;6.45;5.85;;;23.40;99.90;;;;;;6087772;23;20305;-77
2021/09/29 08:22:05;;;;;;;5.55;5.05;;;23.40;99.90;;;;;;6086789;23;20197;-77
2021/09/29 08:24:38;;;;;;;6.45;5.85;;;23.60;99.90;;;;;;6084137;23;20634;-77
2021/09/29 08:27:09;;;;;;;6.03;5.53;;;23.60;99.90;;;;;;6086300;23;20201;-78
2021/09/29 08:29:49;;;;;;;6.50;5.93;;;23.40;99.90;;;;;;6089107;23;20269;-78
2021/09/29 08:32:24;;;;;;;6.00;5.40;;;23.30;99.90;;;;;;6089250;23;20209;-78
2021/09/29 08:34:58;;;;;;;5.95;5.45;;;23.30;99.90;;;;;;6088139;23;20267;-77
2021/09/29 08:37:43;;;;;;;5.80;5.20;;;23.10;99.90;;;;;;6088138;23;20256;-78
2021/09/29 08:40:24;;;;;;;5.38;4.88;;;23.30;99.90;;;;;;6089686;23;20268;-76
2021/09/29 08:43:06;;;;;;;5.47;4.97;;;23.10;99.90;;;;;;6089461;23;20209;-76
2021/09/29 08:45:37;;;;;;;5.85;5.35;;;23.10;99.90;;;;;;6088822;23;20205;-76
2021/09/29 08:48:11;;;;;;;5.43;4.93;;;23.30;99.90;;;;;;6088924;23;20197;-76
2021/09/29 08:51:11;;;;;;;5.13;4.72;;;23.40;99.90;;;;;;6089793;23;20216;-76
2021/09/29 08:56:38;;;;;;;5.70;5.20;;;23.70;99.90;;;;;;6087979;23;20252;-78
2021/09/29 09:15:57;;;;;;;6.13;5.30;;;24.20;99.90;;;;;;6080599;23;20603;-77
2021/09/29 09:18:24;;;;;;;5.80;5.30;;;24.20;99.90;;;;;;6081133;23;20646;-77
2021/09/29 09:20:59;;;;;;;5.40;4.90;;;24.30;99.90;;;;;;6080309;23;20264;-77
2021/09/29 09:23:36;;;;;;;5.72;5.22;;;24.30;99.90;;;;;;6082629;23;20674;-77
2021/09/29 09:26:16;;;;;;;7.00;5.20;;;24.30;99.90;;;;;;6080743;23;20233;-78
2021/09/29 09:28:44;;;;;;;5.80;5.28;;;24.00;99.90;;;;;;6082751;23;20798;-74
2021/09/29 09:31:14;;;;;;;4.82;4.43;;;24.10;99.90;;;;;;6078840;23;20209;-77
2021/09/29 09:33:50;;;;;;;5.53;5.00;;;24.30;99.90;;;;;;6080742;23;20205;-75
2021/09/29 09:36:32;;;;;;;5.57;5.00;;;24.60;99.90;;;;;;6077071;23;20201;-77
2021/09/29 09:39:01;;;;;;;5.18;4.78;;;24.60;99.90;;;;;;6081310;23;20231;-76
2021/09/29 09:41:30;;;;;;;5.43;5.03;;;24.70;99.90;;;;;;6080136;23;20587;-77
2021/09/29 09:43:59;;;;;;;4.88;4.47;;;24.60;99.90;;;;;;6079596;23;20264;-77
2021/09/29 09:46:27;;;;;;;6.35;5.68;;;24.70;99.90;;;;;;6079074;23;20268;-76
2021/09/29 09:49:06;;;;;;;5.07;4.63;;;24.80;99.90;;;;;;6080993;23;20677;-76
2021/09/29 09:51:45;;;;;;;5.22;4.72;;;24.60;99.90;;;;;;6082612;23;20596;-78
2021/09/29 09:54:12;;;;;;;5.45;4.85;;;24.70;99.90;;;;;;6080671;23;20209;-77
2021/09/29 09:56:42;;;;;;;4.80;4.40;;;24.50;99.90;;;;;;6080952;23;20213;-77
2021/09/29 09:59:10;;;;;;;5.28;4.88;;;24.50;99.90;;;;;;6082704;23;20216;-77
2021/09/29 10:01:37;;;;;;;4.47;4.10;;;24.60;99.90;;;;;;6081095;23;20686;-77
2021/09/29 10:04:11;;;;;;;5.38;4.82;;;24.50;99.90;;;;;;6080070;23;20233;-76
2021/09/29 10:06:39;;;;;;;5.13;4.70;;;24.60;99.90;;;;;;6079984;23;20551;-77
2021/09/29 10:09:12;;;;;;;4.80;4.22;;;24.60;99.90;;;;;;6080512;23;20237;-76
2021/09/29 10:11:53;;;;;;;4.90;4.50;;;24.70;99.90;;;;;;6082662;23;20261;-78
2021/09/29 10:14:35;;;;;;;5.15;4.35;;;24.70;99.90;;;;;;6081803;23;20220;-76
2021/09/29 10:23:09;;;;;;;4.97;4.57;;;24.80;99.90;;;;;;6081884;23;20212;-77
2021/09/29 10:28:25;;;;;;;4.43;4.03;;;25.30;99.90;;;;;;6079750;23;20275;-77
2021/09/29 10:31:11;;;;;;;4.22;3.92;;;25.30;99.90;;;;;;6074946;23;20212;-76
2021/09/29 10:33:42;;;;;;;4.55;4.15;;;25.20;99.90;;;;;;6078001;23;20385;-78
2021/09/29 10:36:21;;;;;;;4.18;3.88;;;25.20;99.90;;;;;;6073303;23;20209;-77
2021/09/29 10:41:52;;;;;;;4.43;4.13;;;25.40;99.90;;;;;;6075742;23;20263;-76
2021/09/29 10:44:23;;;;;;;4.10;3.80;;;25.40;99.90;;;;;;6078861;23;20201;-76
2021/09/29 10:47:09;;;;;;;4.80;4.40;;;25.60;99.90;;;;;;6077824;23;20216;-77
2021/09/29 11:06:55;;;;;;;4.07;3.75;;;25.30;99.90;;;;;;6079225;23;20232;-76
2021/09/29 11:27:15;;;;;;;4.00;3.60;;;24.90;99.90;;;;;;6073347;23;20219;-76
2021/09/29 11:31:46;;;;;;;3.40;2.78;;;25.90;99.90;;;;;;6076396;23;20201;-77
2021/09/29 11:34:18;;;;;;;2.83;2.63;;;26.00;99.90;;;;;;6078098;23;20222;-74
2021/09/29 11:36:58;;;;;;;2.95;2.75;;;25.70;99.90;;;;;;6078713;23;20201;-76
2021/09/29 12:10:05;;;;;;;2.95;2.60;;;25.90;99.90;;;;;;6083633;23;20251;-76
2021/09/29 12:12:37;;;;;;;3.63;2.88;;;26.20;99.90;;;;;;6083598;23;20197;-75
2021/09/29 12:15:06;;;;;;;2.60;2.40;;;26.40;99.90;;;;;;6080898;23;20306;-77
2021/09/29 12:17:35;;;;;;;2.88;2.67;;;26.30;99.90;;;;;;6081078;23;20202;-77
2021/09/29 12:20:10;;;;;;;2.72;2.53;;;26.10;99.90;;;;;;6079813;23;20413;-77
2021/09/29 12:22:41;;;;;;;2.85;2.65;;;26.00;99.90;;;;;;6080363;23;20708;-77
2021/09/29 12:25:13;;;;;;;2.80;2.60;;;25.90;99.90;;;;;;6081281;23;20682;-76
2021/09/29 12:27:48;;;;;;;2.80;2.60;;;25.70;99.90;;;;;;6081016;23;20613;-77
2021/09/29 12:30:18;;;;;;;2.75;2.35;;;25.70;99.90;;;;;;6078517;23;20284;-77
2021/09/29 12:33:02;;;;;;;3.10;2.90;;;25.70;99.90;;;;;;6081172;23;20213;-76
2021/09/29 12:35:43;;;;;;;2.90;2.70;;;25.80;99.90;;;;;;6080028;23;20304;-75
2021/09/29 12:38:10;;;;;;;3.78;3.47;;;25.70;99.90;;;;;;6079598;23;20209;-76
2021/09/29 12:40:41;;;;;;;3.10;2.80;;;25.60;99.90;;;;;;6079401;23;20220;-76
2021/09/29 12:43:12;;;;;;;2.88;2.67;;;25.50;99.90;;;;;;6081795;23;20205;-76
2021/09/29 12:45:40;;;;;;;2.92;2.72;;;25.70;99.90;;;;;;6081077;23;20213;-76
2021/09/29 12:48:10;;;;;;;3.05;2.85;;;26.00;99.90;;;;;;6080244;23;20217;-77
2021/09/29 12:50:42;;;;;;;3.75;3.45;;;26.30;99.90;;;;;;6080887;23;20210;-74
2021/09/29 12:53:22;;;;;;;3.25;2.95;;;26.30;99.90;;;;;;6078998;23;20296;-77
2021/09/29 12:55:54;;;;;;;2.97;2.78;;;26.10;99.90;;;;;;6082132;23;20217;-77
2021/09/29 12:58:22;;;;;;;2.83;2.63;;;25.80;99.90;;;;;;6080443;23;20620;-76
2021/09/29 13:00:49;;;;;;;3.03;2.75;;;25.70;99.90;;;;;;6081656;23;20229;-76
2021/09/29 13:03:16;;;;;;;2.95;2.75;;;25.60;99.90;;;;;;6079483;23;20209;-76
2021/09/29 13:05:44;;;;;;;3.05;2.75;;;25.60;99.90;;;;;;6080398;23;20281;-76
2021/09/29 13:08:11;;;;;;;3.00;2.80;;;25.70;99.90;;;;;;6079154;23;20205;-77
2021/09/29 13:10:38;;;;;;;3.40;3.15;;;25.70;99.90;;;;;;6082417;23;20216;-77
2021/09/29 13:13:07;;;;;;;3.78;3.40;;;25.70;99.90;;;;;;6078850;23;20209;-76
2021/09/29 13:15:39;;;;;;;2.75;2.55;;;25.70;99.90;;;;;;6081541;23;20217;-75
2021/09/29 13:18:07;;;;;;;2.53;2.33;;;25.70;99.90;;;;;;6076757;23;20201;-77
2021/09/29 13:20:34;;;;;;;2.80;2.60;;;25.80;99.90;;;;;;6066537;23;20233;-76
2021/09/29 13:23:06;;;;;;;2.70;2.50;;;25.80;99.90;;;;;;6080084;23;20272;-76
2021/09/29 13:36:38;;;;;;;3.35;3.08;;;25.60;99.90;;;;;;6079708;23;20220;-77
2021/09/29 13:39:08;;;;;;;2.83;2.63;;;25.50;99.90;;;;;;6077614;23;20213;-76
2021/09/29 13:41:36;;;;;;;2.90;2.70;;;25.60;99.90;;;;;;6079458;23;20214;-75
2021/09/29 13:44:06;;;;;;;2.85;2.65;;;25.70;99.90;;;;;;6081382;23;20261;-76
2021/09/29 13:46:33;;;;;;;2.50;2.30;;;25.90;99.90;;;;;;6080468;23;20197;-76
2021/09/29 13:49:02;;;;;;;3.38;2.58;;;26.00;99.90;;;;;;6079500;23;20495;-77
2021/09/29 13:51:30;;;;;;;2.80;2.60;;;26.10;99.90;;;;;;6078523;23;20201;-75
2021/09/29 13:53:58;;;;;;;2.88;2.60;;;26.10;99.90;;;;;;6043663;23;20693;-76
2021/09/29 13:56:31;;;;;;;2.90;2.70;;;25.90;99.90;;;;;;6078590;23;20209;-77
2021/09/29 13:59:16;;;;;;;3.50;2.60;;;25.80;99.90;;;;;;6080719;23;20265;-77
2021/09/29 14:02:09;;;;;;;2.53;2.33;;;25.70;99.90;;;;;;6078637;23;20221;-77
2021/09/29 14:29:27;;;;;;;2.55;2.35;;;26.00;99.90;;;;;;6076543;23;20745;-76
2021/09/29 14:32:04;;;;;;;2.88;2.58;;;26.00;99.90;;;;;;6079075;23;20218;-76
2021/09/29 14:34:33;;;;;;;2.42;2.22;;;26.00;99.90;;;;;;6079069;23;20197;-75
2021/09/29 14:37:01;;;;;;;2.60;2.40;;;25.80;99.90;;;;;;6083263;23;20225;-77
2021/09/29 14:39:28;;;;;;;2.40;2.20;;;25.60;99.90;;;;;;6078251;23;20450;-76
2021/09/29 14:41:55;;;;;;;2.70;2.50;;;25.50;99.90;;;;;;6080332;23;20589;-77
2021/09/29 14:44:23;;;;;;;2.17;2.08;;;25.50;99.90;;;;;;6078301;23;20213;-76
2021/09/29 14:46:50;;;;;;;2.60;2.40;;;25.40;99.90;;;;;;6082544;23;20205;-76
2021/09/29 14:49:17;;;;;;;2.83;2.63;;;25.40;99.90;;;;;;6079727;23;20336;-76
2021/09/29 14:51:45;;;;;;;2.65;2.25;;;25.50;99.90;;;;;;6079155;23;20273;-76
2021/09/29 14:54:12;;;;;;;2.25;2.15;;;25.50;99.90;;;;;;6080959;23;20272;-77
2021/09/29 14:56:39;;;;;;;2.28;2.17;;;25.40;99.90;;;;;;6079688;23;20257;-76
2021/09/29 14:59:06;;;;;;;2.35;2.25;;;25.30;99.90;;;;;;6080896;23;20619;-77
2021/09/29 15:01:33;;;;;;;2.40;2.20;;;25.20;99.90;;;;;;6077783;23;20280;-77
2021/09/29 15:04:00;;;;;;;2.30;2.10;;;25.10;99.90;;;;;;6080491;23;20224;-77
2021/09/29 15:06:28;;;;;;;2.20;2.10;;;25.00;99.90;;;;;;6078343;23;20489;-77
2021/09/29 15:08:56;;;;;;;2.00;1.90;;;25.00;99.90;;;;;;6080590;23;20702;-76
2021/09/29 15:11:23;;;;;;;2.00;1.90;;;25.00;99.90;;;;;;6079156;23;20241;-76
2021/09/29 15:13:52;;;;;;;2.72;2.53;;;25.00;99.90;;;;;;6079135;23;20209;-77